sensor_id;sensor_type;location;lat;lon;timestamp;temperature;humidity
37158;DHT22;23050;51.776;22.638;2024-02-16T00:02:00;5.40;99.90
37158;DHT22;23050;51.776;22.638;2024-02-16T00:04:27;5.40;99.90
37158;DHT22;23050;51.776;22.638;2024-02-16T00:06:52;5.40;99.90
37158;DHT22;23050;51.776;22.638;2024-02-16T00:09:18;5.40;99.90
37158;DHT22;23050;51.776;22.638;2024-02-16T00:11:44;5.30;99.90
37158;DHT22;23050;51.776;22.638;2024-02-16T00:14:10;5.30;99.90
37158;DHT22;23050;51.776;22.638;2024-02-16T00:16:36;5.30;99.90
37158;DHT22;23050;51.776;22.638;2024-02-16T00:19:01;5.30;99.90
37158;DHT22;23050;51.776;22.638;2024-02-16T00:21:28;5.30;99.90
37158;DHT22;23050;51.776;22.638;2024-02-16T00:23:54;5.20;99.90
37158;DHT22;23050;51.776;22.638;2024-02-16T00:26:20;5.20;99.90
37158;DHT22;23050;51.776;22.638;2024-02-16T00:28:46;5.20;99.90
37158;DHT22;23050;51.776;22.638;2024-02-16T00:31:12;5.10;99.90
37158;DHT22;23050;51.776;22.638;2024-02-16T00:33:38;5.10;99.90
37158;DHT22;23050;51.776;22.638;2024-02-16T00:36:04;5.00;99.90
37158;DHT22;23050;51.776;22.638;2024-02-16T00:38:30;5.00;99.90
37158;DHT22;23050;51.776;22.638;2024-02-16T00:40:55;4.90;99.90
37158;DHT22;23050;51.776;22.638;2024-02-16T00:43:21;4.90;99.90
37158;DHT22;23050;51.776;22.638;2024-02-16T00:45:47;4.90;99.90
37158;DHT22;23050;51.776;22.638;2024-02-16T00:48:13;4.70;99.90
37158;DHT22;23050;51.776;22.638;2024-02-16T00:50:39;4.70;99.90
37158;DHT22;23050;51.776;22.638;2024-02-16T00:53:05;4.60;99.90
37158;DHT22;23050;51.776;22.638;2024-02-16T00:55:31;4.60;99.90
37158;DHT22;23050;51.776;22.638;2024-02-16T00:57:56;4.50;99.90
37158;DHT22;23050;51.776;22.638;2024-02-16T01:00:22;4.40;99.90
37158;DHT22;23050;51.776;22.638;2024-02-16T01:02:51;4.40;99.90
37158;DHT22;23050;51.776;22.638;2024-02-16T01:05:37;4.30;99.90
37158;DHT22;23050;51.776;22.638;2024-02-16T01:08:03;4.30;99.90
37158;DHT22;23050;51.776;22.638;2024-02-16T01:10:29;4.20;99.90
37158;DHT22;23050;51.776;22.638;2024-02-16T01:12:54;4.20;99.90
37158;DHT22;23050;51.776;22.638;2024-02-16T01:15:21;4.10;99.90
37158;DHT22;23050;51.776;22.638;2024-02-16T01:17:47;4.10;99.90
37158;DHT22;23050;51.776;22.638;2024-02-16T01:20:12;4.10;99.90
37158;DHT22;23050;51.776;22.638;2024-02-16T01:22:39;4.10;99.90
37158;DHT22;23050;51.776;22.638;2024-02-16T01:25:07;4.10;99.90
37158;DHT22;23050;51.776;22.638;2024-02-16T01:27:34;4.10;99.90
37158;DHT22;23050;51.776;22.638;2024-02-16T01:30:01;4.10;99.90
37158;DHT22;23050;51.776;22.638;2024-02-16T01:32:26;4.10;99.90
37158;DHT22;23050;51.776;22.638;2024-02-16T01:34:52;4.10;99.90
37158;DHT22;23050;51.776;22.638;2024-02-16T01:37:18;4.10;99.90
37158;DHT22;23050;51.776;22.638;2024-02-16T01:39:44;4.10;99.90
37158;DHT22;23050;51.776;22.638;2024-02-16T01:42:11;3.90;99.90
37158;DHT22;23050;51.776;22.638;2024-02-16T01:44:36;4.10;99.90
37158;DHT22;23050;51.776;22.638;2024-02-16T01:47:04;4.10;99.90
37158;DHT22;23050;51.776;22.638;2024-02-16T01:49:30;4.10;99.90
37158;DHT22;23050;51.776;22.638;2024-02-16T01:51:56;4.10;99.90
37158;DHT22;23050;51.776;22.638;2024-02-16T01:54:23;4.20;99.90
37158;DHT22;23050;51.776;22.638;2024-02-16T01:56:49;4.10;99.90
37158;DHT22;23050;51.776;22.638;2024-02-16T01:59:19;4.10;99.90
37158;DHT22;23050;51.776;22.638;2024-02-16T02:01:45;4.00;99.90
37158;DHT22;23050;51.776;22.638;2024-02-16T02:04:10;4.00;99.90
37158;DHT22;23050;51.776;22.638;2024-02-16T02:06:36;4.00;99.90
37158;DHT22;23050;51.776;22.638;2024-02-16T02:09:03;4.00;99.90
37158;DHT22;23050;51.776;22.638;2024-02-16T02:11:29;4.00;99.90
37158;DHT22;23050;51.776;22.638;2024-02-16T02:13:55;4.10;99.90
37158;DHT22;23050;51.776;22.638;2024-02-16T02:16:21;4.10;99.90
37158;DHT22;23050;51.776;22.638;2024-02-16T02:18:47;4.00;99.90
37158;DHT22;23050;51.776;22.638;2024-02-16T02:21:12;4.00;99.90
37158;DHT22;23050;51.776;22.638;2024-02-16T02:23:41;3.90;99.90
37158;DHT22;23050;51.776;22.638;2024-02-16T02:26:06;3.90;99.90
37158;DHT22;23050;51.776;22.638;2024-02-16T02:28:32;3.90;99.90
37158;DHT22;23050;51.776;22.638;2024-02-16T02:30:59;3.90;99.90
37158;DHT22;23050;51.776;22.638;2024-02-16T02:33:25;3.90;99.90
37158;DHT22;23050;51.776;22.638;2024-02-16T02:35:51;3.80;99.90
37158;DHT22;23050;51.776;22.638;2024-02-16T02:38:17;3.90;99.90
37158;DHT22;23050;51.776;22.638;2024-02-16T02:40:43;3.70;99.90
37158;DHT22;23050;51.776;22.638;2024-02-16T02:43:09;3.70;99.90
37158;DHT22;23050;51.776;22.638;2024-02-16T02:45:35;3.60;99.90
37158;DHT22;23050;51.776;22.638;2024-02-16T02:48:00;3.50;99.90
37158;DHT22;23050;51.776;22.638;2024-02-16T02:50:26;3.40;99.90
37158;DHT22;23050;51.776;22.638;2024-02-16T02:52:52;3.30;99.90
37158;DHT22;23050;51.776;22.638;2024-02-16T02:55:18;3.30;99.90
37158;DHT22;23050;51.776;22.638;2024-02-16T02:57:43;3.20;99.90
37158;DHT22;23050;51.776;22.638;2024-02-16T03:00:09;3.10;99.90
37158;DHT22;23050;51.776;22.638;2024-02-16T03:02:38;3.10;99.90
37158;DHT22;23050;51.776;22.638;2024-02-16T03:05:05;3.00;99.90
37158;DHT22;23050;51.776;22.638;2024-02-16T03:07:33;2.90;99.90
37158;DHT22;23050;51.776;22.638;2024-02-16T03:09:58;2.90;99.90
37158;DHT22;23050;51.776;22.638;2024-02-16T03:12:24;2.80;99.90
37158;DHT22;23050;51.776;22.638;2024-02-16T03:14:50;2.90;99.90
37158;DHT22;23050;51.776;22.638;2024-02-16T03:17:16;2.70;99.90
37158;DHT22;23050;51.776;22.638;2024-02-16T03:19:41;2.90;99.90
37158;DHT22;23050;51.776;22.638;2024-02-16T03:22:07;2.50;99.90
37158;DHT22;23050;51.776;22.638;2024-02-16T03:24:33;2.60;99.90
37158;DHT22;23050;51.776;22.638;2024-02-16T03:26:59;2.60;99.90
37158;DHT22;23050;51.776;22.638;2024-02-16T03:29:26;2.50;99.90
37158;DHT22;23050;51.776;22.638;2024-02-16T03:31:51;2.40;99.90
37158;DHT22;23050;51.776;22.638;2024-02-16T03:34:17;2.40;99.90
37158;DHT22;23050;51.776;22.638;2024-02-16T03:36:43;2.30;99.90
37158;DHT22;23050;51.776;22.638;2024-02-16T03:39:08;2.30;99.90
37158;DHT22;23050;51.776;22.638;2024-02-16T03:41:34;2.30;99.90
37158;DHT22;23050;51.776;22.638;2024-02-16T03:44:00;2.30;99.90
37158;DHT22;23050;51.776;22.638;2024-02-16T03:46:26;2.20;99.90
37158;DHT22;23050;51.776;22.638;2024-02-16T03:48:52;2.20;99.90
37158;DHT22;23050;51.776;22.638;2024-02-16T03:51:18;2.20;99.90
37158;DHT22;23050;51.776;22.638;2024-02-16T03:53:44;2.20;99.90
37158;DHT22;23050;51.776;22.638;2024-02-16T03:56:10;2.20;99.90
37158;DHT22;23050;51.776;22.638;2024-02-16T03:58:38;2.20;99.90
37158;DHT22;23050;51.776;22.638;2024-02-16T04:01:04;2.20;99.90
37158;DHT22;23050;51.776;22.638;2024-02-16T04:03:32;2.20;99.90
37158;DHT22;23050;51.776;22.638;2024-02-16T04:05:58;2.20;99.90
37158;DHT22;23050;51.776;22.638;2024-02-16T04:08:25;2.20;99.90
37158;DHT22;23050;51.776;22.638;2024-02-16T04:10:51;2.10;99.90
37158;DHT22;23050;51.776;22.638;2024-02-16T04:13:16;2.10;99.90
37158;DHT22;23050;51.776;22.638;2024-02-16T04:15:42;2.10;99.90
37158;DHT22;23050;51.776;22.638;2024-02-16T04:18:07;1.90;99.90
37158;DHT22;23050;51.776;22.638;2024-02-16T04:20:33;2.00;99.90
37158;DHT22;23050;51.776;22.638;2024-02-16T04:23:00;2.00;99.90
37158;DHT22;23050;51.776;22.638;2024-02-16T04:25:25;2.00;99.90
37158;DHT22;23050;51.776;22.638;2024-02-16T04:27:51;2.00;99.90
37158;DHT22;23050;51.776;22.638;2024-02-16T04:30:17;2.10;99.90
37158;DHT22;23050;51.776;22.638;2024-02-16T04:32:42;2.10;99.90
37158;DHT22;23050;51.776;22.638;2024-02-16T04:35:08;2.10;99.90
37158;DHT22;23050;51.776;22.638;2024-02-16T04:37:38;2.10;99.90
37158;DHT22;23050;51.776;22.638;2024-02-16T04:40:06;2.10;99.90
37158;DHT22;23050;51.776;22.638;2024-02-16T04:42:31;2.10;99.90
37158;DHT22;23050;51.776;22.638;2024-02-16T04:44:57;2.10;99.90
37158;DHT22;23050;51.776;22.638;2024-02-16T04:47:25;2.00;99.90
37158;DHT22;23050;51.776;22.638;2024-02-16T04:49:52;2.00;99.90
37158;DHT22;23050;51.776;22.638;2024-02-16T04:52:17;2.00;99.90
37158;DHT22;23050;51.776;22.638;2024-02-16T04:54:43;2.00;99.90
37158;DHT22;23050;51.776;22.638;2024-02-16T04:57:09;1.90;99.90
37158;DHT22;23050;51.776;22.638;2024-02-16T04:59:34;2.00;99.90
37158;DHT22;23050;51.776;22.638;2024-02-16T05:02:00;1.90;99.90
37158;DHT22;23050;51.776;22.638;2024-02-16T05:04:26;1.90;99.90
37158;DHT22;23050;51.776;22.638;2024-02-16T05:06:52;1.80;99.90
37158;DHT22;23050;51.776;22.638;2024-02-16T05:09:22;1.80;99.90
37158;DHT22;23050;51.776;22.638;2024-02-16T05:11:50;1.70;99.90
37158;DHT22;23050;51.776;22.638;2024-02-16T05:14:17;1.60;99.90
37158;DHT22;23050;51.776;22.638;2024-02-16T05:16:44;1.60;99.90
37158;DHT22;23050;51.776;22.638;2024-02-16T05:19:10;1.60;99.90
37158;DHT22;23050;51.776;22.638;2024-02-16T05:21:35;1.40;99.90
37158;DHT22;23050;51.776;22.638;2024-02-16T05:24:01;1.50;99.90
37158;DHT22;23050;51.776;22.638;2024-02-16T05:26:27;1.50;99.90
37158;DHT22;23050;51.776;22.638;2024-02-16T05:28:53;1.40;99.90
37158;DHT22;23050;51.776;22.638;2024-02-16T05:31:18;1.40;99.90
37158;DHT22;23050;51.776;22.638;2024-02-16T05:33:46;1.30;99.90
37158;DHT22;23050;51.776;22.638;2024-02-16T05:36:12;1.30;99.90
37158;DHT22;23050;51.776;22.638;2024-02-16T05:38:38;1.30;99.90
37158;DHT22;23050;51.776;22.638;2024-02-16T05:41:09;1.20;99.90
37158;DHT22;23050;51.776;22.638;2024-02-16T05:43:35;1.20;99.90
37158;DHT22;23050;51.776;22.638;2024-02-16T05:46:00;1.20;99.90
37158;DHT22;23050;51.776;22.638;2024-02-16T05:48:26;1.20;99.90
37158;DHT22;23050;51.776;22.638;2024-02-16T05:51:02;1.20;99.90
37158;DHT22;23050;51.776;22.638;2024-02-16T05:53:27;1.30;99.90
37158;DHT22;23050;51.776;22.638;2024-02-16T05:55:53;1.30;99.90
37158;DHT22;23050;51.776;22.638;2024-02-16T05:58:21;1.40;99.90
37158;DHT22;23050;51.776;22.638;2024-02-16T06:00:53;1.40;99.90
37158;DHT22;23050;51.776;22.638;2024-02-16T06:03:20;1.40;99.90
37158;DHT22;23050;51.776;22.638;2024-02-16T06:05:46;1.50;99.90
37158;DHT22;23050;51.776;22.638;2024-02-16T06:08:12;1.50;99.90
37158;DHT22;23050;51.776;22.638;2024-02-16T06:10:37;1.60;99.90
37158;DHT22;23050;51.776;22.638;2024-02-16T06:13:05;1.70;99.90
37158;DHT22;23050;51.776;22.638;2024-02-16T06:15:31;1.90;99.90
37158;DHT22;23050;51.776;22.638;2024-02-16T06:18:00;1.80;99.90
37158;DHT22;23050;51.776;22.638;2024-02-16T06:20:26;1.90;99.90
37158;DHT22;23050;51.776;22.638;2024-02-16T06:22:52;2.00;99.90
37158;DHT22;23050;51.776;22.638;2024-02-16T06:25:18;2.10;99.90
37158;DHT22;23050;51.776;22.638;2024-02-16T06:27:44;2.30;99.90
37158;DHT22;23050;51.776;22.638;2024-02-16T06:30:11;2.50;99.90
37158;DHT22;23050;51.776;22.638;2024-02-16T06:32:39;2.70;99.90
37158;DHT22;23050;51.776;22.638;2024-02-16T06:35:06;2.90;99.90
37158;DHT22;23050;51.776;22.638;2024-02-16T06:37:32;3.30;99.90
37158;DHT22;23050;51.776;22.638;2024-02-16T06:39:58;3.50;99.90
37158;DHT22;23050;51.776;22.638;2024-02-16T06:42:24;3.70;99.90
37158;DHT22;23050;51.776;22.638;2024-02-16T06:44:49;3.80;99.90
37158;DHT22;23050;51.776;22.638;2024-02-16T06:47:15;4.00;99.90
37158;DHT22;23050;51.776;22.638;2024-02-16T06:49:41;4.30;99.90
37158;DHT22;23050;51.776;22.638;2024-02-16T06:52:07;4.50;99.90
37158;DHT22;23050;51.776;22.638;2024-02-16T06:54:34;4.80;99.90
37158;DHT22;23050;51.776;22.638;2024-02-16T06:57:00;5.20;99.90
37158;DHT22;23050;51.776;22.638;2024-02-16T06:59:27;5.30;99.90
37158;DHT22;23050;51.776;22.638;2024-02-16T07:01:56;5.40;99.90
37158;DHT22;23050;51.776;22.638;2024-02-16T07:04:22;5.30;99.90
37158;DHT22;23050;51.776;22.638;2024-02-16T07:06:48;5.40;99.90
37158;DHT22;23050;51.776;22.638;2024-02-16T07:09:13;5.20;99.90
37158;DHT22;23050;51.776;22.638;2024-02-16T07:11:41;5.10;99.90
37158;DHT22;23050;51.776;22.638;2024-02-16T07:14:06;5.30;99.90
37158;DHT22;23050;51.776;22.638;2024-02-16T07:16:33;5.10;99.90
37158;DHT22;23050;51.776;22.638;2024-02-16T07:18:59;4.90;99.90
37158;DHT22;23050;51.776;22.638;2024-02-16T07:21:25;4.80;99.90
37158;DHT22;23050;51.776;22.638;2024-02-16T07:23:54;4.80;99.90
37158;DHT22;23050;51.776;22.638;2024-02-16T07:26:21;4.80;99.90
37158;DHT22;23050;51.776;22.638;2024-02-16T07:28:47;4.80;99.90
37158;DHT22;23050;51.776;22.638;2024-02-16T07:31:13;4.80;99.90
37158;DHT22;23050;51.776;22.638;2024-02-16T07:33:40;4.80;99.90
37158;DHT22;23050;51.776;22.638;2024-02-16T07:36:06;4.80;99.90
37158;DHT22;23050;51.776;22.638;2024-02-16T07:38:32;4.80;99.90
37158;DHT22;23050;51.776;22.638;2024-02-16T07:40:58;5.00;99.90
37158;DHT22;23050;51.776;22.638;2024-02-16T07:43:26;4.90;99.90
37158;DHT22;23050;51.776;22.638;2024-02-16T07:45:52;4.90;99.90
37158;DHT22;23050;51.776;22.638;2024-02-16T07:48:20;5.00;99.90
37158;DHT22;23050;51.776;22.638;2024-02-16T07:50:47;5.00;99.90
37158;DHT22;23050;51.776;22.638;2024-02-16T07:53:14;5.10;99.90
37158;DHT22;23050;51.776;22.638;2024-02-16T07:55:39;5.20;99.90
37158;DHT22;23050;51.776;22.638;2024-02-16T07:58:05;5.40;99.90
37158;DHT22;23050;51.776;22.638;2024-02-16T08:00:31;5.40;99.90
37158;DHT22;23050;51.776;22.638;2024-02-16T08:02:56;5.70;99.90
37158;DHT22;23050;51.776;22.638;2024-02-16T08:05:22;6.00;99.90
37158;DHT22;23050;51.776;22.638;2024-02-16T08:07:49;6.10;99.90
37158;DHT22;23050;51.776;22.638;2024-02-16T08:10:21;6.20;99.90
37158;DHT22;23050;51.776;22.638;2024-02-16T08:12:46;6.30;99.90
37158;DHT22;23050;51.776;22.638;2024-02-16T08:15:12;6.10;99.90
37158;DHT22;23050;51.776;22.638;2024-02-16T08:17:39;6.50;99.90
37158;DHT22;23050;51.776;22.638;2024-02-16T08:20:05;6.40;99.90
37158;DHT22;23050;51.776;22.638;2024-02-16T08:22:31;6.50;99.90
37158;DHT22;23050;51.776;22.638;2024-02-16T08:24:58;6.80;99.90
37158;DHT22;23050;51.776;22.638;2024-02-16T08:27:23;6.90;99.90
37158;DHT22;23050;51.776;22.638;2024-02-16T08:29:50;7.30;98.70
37158;DHT22;23050;51.776;22.638;2024-02-16T08:32:17;7.50;96.00
37158;DHT22;23050;51.776;22.638;2024-02-16T08:34:43;8.10;93.60
37158;DHT22;23050;51.776;22.638;2024-02-16T08:37:09;8.60;79.50
37158;DHT22;23050;51.776;22.638;2024-02-16T08:39:37;9.20;60.20
37158;DHT22;23050;51.776;22.638;2024-02-16T08:42:03;9.40;19.80
37158;DHT22;23050;51.776;22.638;2024-02-16T08:44:29;9.90;1.00
37158;DHT22;23050;51.776;22.638;2024-02-16T08:46:54;10.40;1.00
37158;DHT22;23050;51.776;22.638;2024-02-16T08:49:20;10.70;1.00
37158;DHT22;23050;51.776;22.638;2024-02-16T08:51:47;11.20;1.00
37158;DHT22;23050;51.776;22.638;2024-02-16T08:54:13;11.70;1.00
37158;DHT22;23050;51.776;22.638;2024-02-16T08:56:38;11.90;1.00
37158;DHT22;23050;51.776;22.638;2024-02-16T08:59:05;11.50;1.00
37158;DHT22;23050;51.776;22.638;2024-02-16T09:01:33;11.00;1.00
37158;DHT22;23050;51.776;22.638;2024-02-16T09:03:59;11.40;1.00
37158;DHT22;23050;51.776;22.638;2024-02-16T09:06:26;12.00;1.00
37158;DHT22;23050;51.776;22.638;2024-02-16T09:08:52;12.10;1.00
37158;DHT22;23050;51.776;22.638;2024-02-16T09:11:18;11.90;99.90
37158;DHT22;23050;51.776;22.638;2024-02-16T09:13:43;11.60;1.00
37158;DHT22;23050;51.776;22.638;2024-02-16T09:16:09;11.50;1.00
37158;DHT22;23050;51.776;22.638;2024-02-16T09:18:35;11.10;1.00
37158;DHT22;23050;51.776;22.638;2024-02-16T09:21:04;10.80;1.00
37158;DHT22;23050;51.776;22.638;2024-02-16T09:23:29;10.90;1.00
37158;DHT22;23050;51.776;22.638;2024-02-16T09:25:55;11.20;1.00
37158;DHT22;23050;51.776;22.638;2024-02-16T09:28:21;11.30;1.00
37158;DHT22;23050;51.776;22.638;2024-02-16T09:30:47;11.20;1.00
37158;DHT22;23050;51.776;22.638;2024-02-16T09:33:12;11.10;1.00
37158;DHT22;23050;51.776;22.638;2024-02-16T09:35:39;11.30;1.00
37158;DHT22;23050;51.776;22.638;2024-02-16T09:38:05;11.60;1.00
37158;DHT22;23050;51.776;22.638;2024-02-16T09:40:31;11.80;1.00
37158;DHT22;23050;51.776;22.638;2024-02-16T09:42:57;11.60;1.00
37158;DHT22;23050;51.776;22.638;2024-02-16T09:45:24;11.70;1.00
37158;DHT22;23050;51.776;22.638;2024-02-16T09:47:52;12.40;1.00
37158;DHT22;23050;51.776;22.638;2024-02-16T09:50:20;12.80;99.90
37158;DHT22;23050;51.776;22.638;2024-02-16T09:52:48;12.70;99.90
37158;DHT22;23050;51.776;22.638;2024-02-16T09:55:15;12.10;99.90
37158;DHT22;23050;51.776;22.638;2024-02-16T09:57:41;12.20;99.90
37158;DHT22;23050;51.776;22.638;2024-02-16T10:00:10;12.10;99.90
37158;DHT22;23050;51.776;22.638;2024-02-16T10:02:43;11.80;99.90
37158;DHT22;23050;51.776;22.638;2024-02-16T10:05:14;11.70;1.00
37158;DHT22;23050;51.776;22.638;2024-02-16T10:07:41;11.70;1.00
37158;DHT22;23050;51.776;22.638;2024-02-16T10:10:19;11.70;1.00
37158;DHT22;23050;51.776;22.638;2024-02-16T10:12:45;12.00;99.90
37158;DHT22;23050;51.776;22.638;2024-02-16T10:15:11;11.90;1.00
37158;DHT22;23050;51.776;22.638;2024-02-16T10:17:37;12.20;1.00
37158;DHT22;23050;51.776;22.638;2024-02-16T10:20:03;11.80;99.90
37158;DHT22;23050;51.776;22.638;2024-02-16T10:22:32;11.60;99.90
37158;DHT22;23050;51.776;22.638;2024-02-16T10:25:07;11.70;1.00
37158;DHT22;23050;51.776;22.638;2024-02-16T10:27:36;12.00;1.00
37158;DHT22;23050;51.776;22.638;2024-02-16T10:30:02;11.80;99.90
37158;DHT22;23050;51.776;22.638;2024-02-16T10:32:39;11.70;1.00
37158;DHT22;23050;51.776;22.638;2024-02-16T10:35:06;11.80;1.00
37158;DHT22;23050;51.776;22.638;2024-02-16T10:37:34;12.00;1.00
37158;DHT22;23050;51.776;22.638;2024-02-16T10:40:00;12.20;1.00
37158;DHT22;23050;51.776;22.638;2024-02-16T10:42:28;12.30;1.00
37158;DHT22;23050;51.776;22.638;2024-02-16T10:44:55;12.40;99.90
37158;DHT22;23050;51.776;22.638;2024-02-16T10:47:21;12.10;99.90
37158;DHT22;23050;51.776;22.638;2024-02-16T10:49:47;12.00;1.00
37158;DHT22;23050;51.776;22.638;2024-02-16T10:52:14;12.00;1.00
37158;DHT22;23050;51.776;22.638;2024-02-16T10:54:42;11.80;1.00
37158;DHT22;23050;51.776;22.638;2024-02-16T10:57:08;11.70;1.00
37158;DHT22;23050;51.776;22.638;2024-02-16T10:59:41;11.80;1.00
37158;DHT22;23050;51.776;22.638;2024-02-16T11:02:10;12.10;1.00
37158;DHT22;23050;51.776;22.638;2024-02-16T11:04:37;12.10;1.00
37158;DHT22;23050;51.776;22.638;2024-02-16T11:07:16;11.90;1.00
37158;DHT22;23050;51.776;22.638;2024-02-16T11:09:43;11.80;1.00
37158;DHT22;23050;51.776;22.638;2024-02-16T11:12:12;11.90;1.00
37158;DHT22;23050;51.776;22.638;2024-02-16T11:14:43;11.80;1.00
37158;DHT22;23050;51.776;22.638;2024-02-16T11:17:13;11.60;1.00
37158;DHT22;23050;51.776;22.638;2024-02-16T11:19:44;11.60;1.00
37158;DHT22;23050;51.776;22.638;2024-02-16T11:22:10;11.40;1.00
37158;DHT22;23050;51.776;22.638;2024-02-16T11:24:43;11.50;1.00
37158;DHT22;23050;51.776;22.638;2024-02-16T11:27:10;11.50;1.00
37158;DHT22;23050;51.776;22.638;2024-02-16T11:29:37;11.70;1.00
37158;DHT22;23050;51.776;22.638;2024-02-16T11:32:05;11.90;1.00
37158;DHT22;23050;51.776;22.638;2024-02-16T11:34:33;12.00;1.00
37158;DHT22;23050;51.776;22.638;2024-02-16T11:37:00;11.90;1.00
37158;DHT22;23050;51.776;22.638;2024-02-16T11:39:27;11.80;1.00
37158;DHT22;23050;51.776;22.638;2024-02-16T11:44:32;12.00;1.00
37158;DHT22;23050;51.776;22.638;2024-02-16T11:47:03;11.80;1.00
37158;DHT22;23050;51.776;22.638;2024-02-16T11:49:29;11.70;1.00
37158;DHT22;23050;51.776;22.638;2024-02-16T11:51:56;11.70;1.00
37158;DHT22;23050;51.776;22.638;2024-02-16T11:54:22;11.80;1.00
37158;DHT22;23050;51.776;22.638;2024-02-16T11:56:49;11.90;1.00
37158;DHT22;23050;51.776;22.638;2024-02-16T11:59:18;11.80;1.00
37158;DHT22;23050;51.776;22.638;2024-02-16T12:01:55;12.00;1.00
37158;DHT22;23050;51.776;22.638;2024-02-16T12:04:25;11.90;1.00
37158;DHT22;23050;51.776;22.638;2024-02-16T12:06:52;12.10;1.00
37158;DHT22;23050;51.776;22.638;2024-02-16T12:09:18;11.90;1.00
37158;DHT22;23050;51.776;22.638;2024-02-16T12:11:44;11.70;1.00
37158;DHT22;23050;51.776;22.638;2024-02-16T12:14:10;11.70;1.00
37158;DHT22;23050;51.776;22.638;2024-02-16T12:16:37;11.80;1.00
37158;DHT22;23050;51.776;22.638;2024-02-16T12:19:05;11.80;1.00
37158;DHT22;23050;51.776;22.638;2024-02-16T12:21:31;11.60;1.00
37158;DHT22;23050;51.776;22.638;2024-02-16T12:23:57;11.60;1.00
37158;DHT22;23050;51.776;22.638;2024-02-16T12:26:23;11.70;1.00
37158;DHT22;23050;51.776;22.638;2024-02-16T12:28:49;11.60;1.00
37158;DHT22;23050;51.776;22.638;2024-02-16T12:31:19;11.60;1.00
37158;DHT22;23050;51.776;22.638;2024-02-16T12:33:45;11.50;1.00
37158;DHT22;23050;51.776;22.638;2024-02-16T12:36:13;11.50;1.00
37158;DHT22;23050;51.776;22.638;2024-02-16T12:38:39;11.40;1.00
37158;DHT22;23050;51.776;22.638;2024-02-16T12:41:05;11.20;1.00
37158;DHT22;23050;51.776;22.638;2024-02-16T12:43:31;11.20;1.00
37158;DHT22;23050;51.776;22.638;2024-02-16T12:45:58;11.10;1.00
37158;DHT22;23050;51.776;22.638;2024-02-16T12:48:27;11.00;1.00
37158;DHT22;23050;51.776;22.638;2024-02-16T12:50:54;11.00;1.00
37158;DHT22;23050;51.776;22.638;2024-02-16T12:53:19;11.10;1.00
37158;DHT22;23050;51.776;22.638;2024-02-16T12:55:49;11.20;1.00
37158;DHT22;23050;51.776;22.638;2024-02-16T12:58:35;11.20;1.00
37158;DHT22;23050;51.776;22.638;2024-02-16T13:01:02;11.30;1.00
37158;DHT22;23050;51.776;22.638;2024-02-16T13:03:28;11.30;1.00
37158;DHT22;23050;51.776;22.638;2024-02-16T13:05:54;10.90;1.00
37158;DHT22;23050;51.776;22.638;2024-02-16T13:08:19;11.00;1.00
37158;DHT22;23050;51.776;22.638;2024-02-16T13:10:45;11.20;1.00
37158;DHT22;23050;51.776;22.638;2024-02-16T13:13:11;11.20;1.00
37158;DHT22;23050;51.776;22.638;2024-02-16T13:15:36;11.00;1.00
37158;DHT22;23050;51.776;22.638;2024-02-16T13:18:02;10.90;1.00
37158;DHT22;23050;51.776;22.638;2024-02-16T13:20:28;10.90;1.00
37158;DHT22;23050;51.776;22.638;2024-02-16T13:22:53;10.90;1.00
37158;DHT22;23050;51.776;22.638;2024-02-16T13:25:25;11.00;1.00
37158;DHT22;23050;51.776;22.638;2024-02-16T13:27:52;10.80;1.00
37158;DHT22;23050;51.776;22.638;2024-02-16T13:30:18;10.80;1.00
37158;DHT22;23050;51.776;22.638;2024-02-16T13:32:43;10.90;1.00
37158;DHT22;23050;51.776;22.638;2024-02-16T13:35:09;11.10;1.00
37158;DHT22;23050;51.776;22.638;2024-02-16T13:37:35;11.00;1.00
37158;DHT22;23050;51.776;22.638;2024-02-16T13:40:02;11.00;1.00
37158;DHT22;23050;51.776;22.638;2024-02-16T13:42:48;10.90;1.00
37158;DHT22;23050;51.776;22.638;2024-02-16T13:45:14;10.70;1.00
37158;DHT22;23050;51.776;22.638;2024-02-16T13:47:39;10.70;1.00
37158;DHT22;23050;51.776;22.638;2024-02-16T13:50:06;10.60;1.00
37158;DHT22;23050;51.776;22.638;2024-02-16T13:52:32;10.40;1.00
37158;DHT22;23050;51.776;22.638;2024-02-16T13:54:57;10.30;1.00
37158;DHT22;23050;51.776;22.638;2024-02-16T13:57:23;10.40;1.00
37158;DHT22;23050;51.776;22.638;2024-02-16T13:59:49;10.60;1.00
37158;DHT22;23050;51.776;22.638;2024-02-16T14:02:15;10.50;1.00
37158;DHT22;23050;51.776;22.638;2024-02-16T14:04:41;10.50;1.00
37158;DHT22;23050;51.776;22.638;2024-02-16T14:07:07;10.30;1.00
37158;DHT22;23050;51.776;22.638;2024-02-16T14:09:33;10.20;1.00
37158;DHT22;23050;51.776;22.638;2024-02-16T14:11:58;10.20;1.00
37158;DHT22;23050;51.776;22.638;2024-02-16T14:14:26;10.20;1.00
37158;DHT22;23050;51.776;22.638;2024-02-16T14:16:52;10.20;1.00
37158;DHT22;23050;51.776;22.638;2024-02-16T14:19:17;10.20;1.00
37158;DHT22;23050;51.776;22.638;2024-02-16T14:21:43;10.20;1.00
37158;DHT22;23050;51.776;22.638;2024-02-16T14:24:09;10.30;1.00
37158;DHT22;23050;51.776;22.638;2024-02-16T14:26:36;10.10;1.00
37158;DHT22;23050;51.776;22.638;2024-02-16T14:29:05;9.80;7.60
37158;DHT22;23050;51.776;22.638;2024-02-16T14:31:32;9.60;16.60
37158;DHT22;23050;51.776;22.638;2024-02-16T14:33:59;9.50;25.20
37158;DHT22;23050;51.776;22.638;2024-02-16T14:36:24;9.40;33.10
37158;DHT22;23050;51.776;22.638;2024-02-16T14:38:50;9.40;41.70
37158;DHT22;23050;51.776;22.638;2024-02-16T14:41:16;9.40;48.80
37158;DHT22;23050;51.776;22.638;2024-02-16T14:43:42;9.30;49.90
37158;DHT22;23050;51.776;22.638;2024-02-16T14:46:08;9.50;55.30
37158;DHT22;23050;51.776;22.638;2024-02-16T14:48:35;9.50;48.80
37158;DHT22;23050;51.776;22.638;2024-02-16T14:51:01;9.40;43.80
37158;DHT22;23050;51.776;22.638;2024-02-16T14:53:27;9.20;48.20
37158;DHT22;23050;51.776;22.638;2024-02-16T14:55:56;9.10;55.10
37158;DHT22;23050;51.776;22.638;2024-02-16T14:58:21;9.00;57.90
37158;DHT22;23050;51.776;22.638;2024-02-16T15:00:48;9.00;61.80
37158;DHT22;23050;51.776;22.638;2024-02-16T15:03:15;8.90;66.10
37158;DHT22;23050;51.776;22.638;2024-02-16T15:05:41;8.80;65.70
37158;DHT22;23050;51.776;22.638;2024-02-16T15:08:07;8.70;68.60
37158;DHT22;23050;51.776;22.638;2024-02-16T15:10:32;8.50;75.80
37158;DHT22;23050;51.776;22.638;2024-02-16T15:12:58;8.50;81.80
37158;DHT22;23050;51.776;22.638;2024-02-16T15:15:23;8.40;86.60
37158;DHT22;23050;51.776;22.638;2024-02-16T15:17:49;8.30;90.90
37158;DHT22;23050;51.776;22.638;2024-02-16T15:20:15;8.00;92.90
37158;DHT22;23050;51.776;22.638;2024-02-16T15:22:41;7.80;95.40
37158;DHT22;23050;51.776;22.638;2024-02-16T15:25:10;7.70;98.00
37158;DHT22;23050;51.776;22.638;2024-02-16T15:27:36;7.60;99.70
37158;DHT22;23050;51.776;22.638;2024-02-16T15:30:02;7.50;99.90